Time;durP1;ratioP1;P1;durP2;ratioP2;P2;SDS_P1;SDS_P2;PMS_P1;PMS_P2;Temp;Humidity;BMP_temperature;BMP_pressure;BME280_temperature;BME280_humidity;BME280_pressure;Samples;Min_cycle;Max_cycle;Signal;HPM_P1;HPM_P2
2021/10/03 00:00:37;;;;;;;25.35;18.73;;;14.10;98.10;;;;;;2079629;28;20033;-71
2021/10/03 00:01:37;;;;;;;27.25;18.15;;;14.00;98.20;;;;;;2079099;28;20116;-70
2021/10/03 00:02:42;;;;;;;24.63;17.38;;;14.00;98.10;;;;;;2079922;28;20471;-70
2021/10/03 00:03:49;;;;;;;28.40;18.15;;;14.00;98.00;;;;;;2079862;28;20020;-69
2021/10/03 00:04:52;;;;;;;25.52;17.80;;;14.10;97.90;;;;;;2080652;28;20048;-71
2021/10/03 00:05:56;;;;;;;22.90;17.60;;;14.10;97.90;;;;;;2088110;28;20025;-71
2021/10/03 00:06:58;;;;;;;26.08;18.02;;;14.00;98.00;;;;;;2079455;28;20072;-70
2021/10/03 00:08:02;;;;;;;24.83;17.52;;;14.00;98.10;;;;;;2071880;28;20018;-69
2021/10/03 00:09:02;;;;;;;24.48;17.40;;;14.00;97.70;;;;;;2088352;28;20033;-70
2021/10/03 00:10:04;;;;;;;26.52;17.75;;;14.00;97.60;;;;;;2088133;28;20516;-69
2021/10/03 00:11:05;;;;;;;23.33;17.25;;;14.10;97.60;;;;;;2080367;28;20434;-69
2021/10/03 00:12:06;;;;;;;22.33;17.10;;;14.00;97.70;;;;;;2079550;28;20045;-69
2021/10/03 00:13:07;;;;;;;24.80;17.50;;;14.00;97.60;;;;;;2079737;28;20049;-69
2021/10/03 00:14:11;;;;;;;24.88;16.65;;;14.00;97.60;;;;;;2071655;28;20033;-70
2021/10/03 00:15:13;;;;;;;22.73;16.60;;;14.00;97.60;;;;;;2072267;28;20046;-70
2021/10/03 00:16:14;;;;;;;22.70;17.17;;;14.00;97.50;;;;;;2080380;28;20061;-70
2021/10/03 00:17:15;;;;;;;23.10;17.05;;;14.00;97.70;;;;;;2080425;28;20589;-69
2021/10/03 00:18:16;;;;;;;23.10;16.98;;;14.00;98.00;;;;;;2088008;28;20036;-70
2021/10/03 00:19:17;;;;;;;22.15;16.67;;;14.00;97.50;;;;;;2088168;28;20044;-70
2021/10/03 00:20:18;;;;;;;23.27;16.85;;;14.00;97.50;;;;;;2080284;28;20033;-70
2021/10/03 00:21:19;;;;;;;29.10;17.38;;;14.00;97.40;;;;;;2080666;28;20036;-69
2021/10/03 00:22:21;;;;;;;22.60;15.88;;;14.00;97.00;;;;;;2081444;28;20032;-72
2021/10/03 00:23:22;;;;;;;21.50;16.35;;;14.00;97.00;;;;;;2081360;28;20486;-70
2021/10/03 00:24:24;;;;;;;21.77;16.33;;;14.00;96.90;;;;;;2081827;28;20053;-70
2021/10/03 00:25:26;;;;;;;22.48;16.92;;;14.00;96.90;;;;;;2082102;28;20410;-70
2021/10/03 00:26:27;;;;;;;25.67;16.88;;;14.00;97.10;;;;;;2082240;28;20475;-70
2021/10/03 00:27:28;;;;;;;26.63;16.75;;;14.00;97.10;;;;;;2082369;28;20035;-71
2021/10/03 00:28:29;;;;;;;25.25;16.40;;;14.00;97.10;;;;;;2089946;28;20429;-70
2021/10/03 00:29:30;;;;;;;22.67;16.80;;;14.10;96.80;;;;;;2089934;28;20083;-70
2021/10/03 00:30:30;;;;;;;25.98;16.85;;;14.00;96.90;;;;;;2081647;28;20163;-70
2021/10/03 00:31:31;;;;;;;24.48;16.73;;;14.00;96.90;;;;;;2080710;28;20037;-70
2021/10/03 00:32:32;;;;;;;23.33;16.50;;;14.00;96.90;;;;;;2082016;28;20734;-70
2021/10/03 00:33:34;;;;;;;22.60;16.27;;;14.00;96.80;;;;;;2081347;28;20029;-71
2021/10/03 00:34:35;;;;;;;21.10;16.60;;;14.00;96.90;;;;;;2081388;28;20055;-69
2021/10/03 00:35:36;;;;;;;23.52;16.55;;;13.90;96.80;;;;;;2082092;28;20097;-69
2021/10/03 00:36:37;;;;;;;19.38;15.98;;;14.00;96.80;;;;;;2081343;28;20034;-70
2021/10/03 00:37:37;;;;;;;21.27;15.68;;;14.00;96.80;;;;;;2081268;28;20037;-69
2021/10/03 00:38:38;;;;;;;20.35;16.05;;;14.00;97.00;;;;;;2081426;28;20195;-71
2021/10/03 00:39:39;;;;;;;21.63;15.88;;;13.90;97.00;;;;;;2081946;28;20041;-70
2021/10/03 00:40:41;;;;;;;21.13;15.95;;;13.90;97.00;;;;;;2082094;28;20033;-70
2021/10/03 00:41:43;;;;;;;23.08;16.35;;;13.90;97.10;;;;;;2081293;28;20391;-69
2021/10/03 00:42:45;;;;;;;20.33;16.00;;;13.90;97.10;;;;;;2082026;28;20070;-71
2021/10/03 00:43:45;;;;;;;20.45;15.90;;;13.80;97.00;;;;;;2081287;28;20430;-69
2021/10/03 00:44:46;;;;;;;19.45;15.23;;;13.80;97.10;;;;;;2081385;28;20029;-69
2021/10/03 00:45:47;;;;;;;19.38;15.95;;;13.80;97.30;;;;;;2081459;28;20071;-71
2021/10/03 00:46:48;;;;;;;19.85;15.95;;;13.80;97.40;;;;;;2081949;28;20034;-69
2021/10/03 00:47:48;;;;;;;24.42;16.50;;;13.70;97.70;;;;;;2081800;28;20033;-70
2021/10/03 00:48:49;;;;;;;23.45;16.33;;;13.70;97.20;;;;;;2081769;28;20041;-70
2021/10/03 00:49:49;;;;;;;22.33;15.68;;;13.80;97.10;;;;;;2081921;28;20060;-70
2021/10/03 00:50:50;;;;;;;24.65;16.63;;;13.80;97.10;;;;;;2081923;28;20739;-70
2021/10/03 00:51:51;;;;;;;21.63;15.82;;;13.80;96.90;;;;;;2080821;28;20057;-71
2021/10/03 00:52:52;;;;;;;23.30;16.98;;;13.80;96.70;;;;;;2081831;28;20030;-71
2021/10/03 00:53:53;;;;;;;21.25;16.23;;;13.80;96.70;;;;;;2081004;28;20482;-69
2021/10/03 00:54:54;;;;;;;20.90;16.52;;;13.80;96.70;;;;;;2081203;28;20029;-70
2021/10/03 00:55:55;;;;;;;22.00;16.25;;;13.80;96.60;;;;;;2081182;28;20137;-70
2021/10/03 00:56:56;;;;;;;22.52;16.15;;;13.80;96.70;;;;;;2081147;28;20579;-69
2021/10/03 00:57:57;;;;;;;27.85;16.65;;;13.90;96.40;;;;;;2081236;28;20034;-69
2021/10/03 00:58:58;;;;;;;22.77;16.73;;;13.90;96.40;;;;;;2081216;28;20026;-69
2021/10/03 00:59:59;;;;;;;21.50;16.35;;;13.90;96.40;;;;;;2081723;28;20063;-69
2021/10/03 01:01:01;;;;;;;25.30;16.25;;;13.90;96.40;;;;;;2081690;28;20022;-69
2021/10/03 01:02:03;;;;;;;22.85;16.35;;;13.80;96.60;;;;;;2081031;28;20459;-70
2021/10/03 01:03:05;;;;;;;22.92;16.20;;;13.80;96.40;;;;;;2081603;28;20494;-71
2021/10/03 01:04:06;;;;;;;21.98;16.02;;;13.80;96.30;;;;;;2081541;28;20025;-70
2021/10/03 01:05:08;;;;;;;23.45;16.25;;;13.90;96.30;;;;;;2082176;28;20029;-70
2021/10/03 01:06:09;;;;;;;26.40;16.80;;;13.90;96.10;;;;;;2081468;28;20029;-72
2021/10/03 01:07:10;;;;;;;19.60;16.35;;;13.90;96.10;;;;;;2081325;28;20053;-70
2021/10/03 01:08:11;;;;;;;21.00;16.35;;;13.90;96.00;;;;;;2081953;28;20490;-70
2021/10/03 01:09:12;;;;;;;22.92;16.38;;;13.90;95.80;;;;;;2081136;28;20501;-70
2021/10/03 01:10:17;;;;;;;24.30;16.80;;;13.90;95.80;;;;;;2080980;28;20037;-70
2021/10/03 01:11:18;;;;;;;22.98;16.58;;;13.90;95.90;;;;;;2080956;28;20030;-70
2021/10/03 01:12:19;;;;;;;25.67;16.55;;;13.90;95.90;;;;;;2081122;28;20813;-71
2021/10/03 01:13:19;;;;;;;21.92;16.73;;;13.90;95.90;;;;;;2081079;28;20112;-69
2021/10/03 01:14:21;;;;;;;23.42;16.40;;;13.90;95.90;;;;;;2081623;28;20482;-70
2021/10/03 01:15:22;;;;;;;24.45;16.58;;;13.90;96.00;;;;;;2081682;28;20025;-71
2021/10/03 01:16:23;;;;;;;23.52;16.58;;;13.80;95.90;;;;;;2081182;28;20033;-69
2021/10/03 01:17:24;;;;;;;21.70;16.40;;;13.80;96.10;;;;;;2081166;28;20497;-69
2021/10/03 01:18:25;;;;;;;21.58;16.92;;;13.80;96.00;;;;;;2081459;28;20034;-69
2021/10/03 01:19:26;;;;;;;24.92;16.63;;;13.80;95.90;;;;;;2081521;28;20107;-70
2021/10/03 01:20:28;;;;;;;20.83;16.58;;;13.90;95.90;;;;;;2081352;28;20453;-70
2021/10/03 01:21:29;;;;;;;29.42;17.38;;;13.80;96.00;;;;;;2080806;28;20095;-70
2021/10/03 01:22:29;;;;;;;23.23;16.65;;;13.80;95.80;;;;;;2081603;28;20445;-71
2021/10/03 01:23:30;;;;;;;24.08;17.08;;;13.80;95.90;;;;;;2081586;28;20045;-70
2021/10/03 01:24:33;;;;;;;23.50;16.58;;;13.90;96.20;;;;;;2081529;28;20488;-70
2021/10/03 01:25:37;;;;;;;21.75;17.20;;;13.80;96.00;;;;;;2080897;28;20518;-70
2021/10/03 01:26:39;;;;;;;22.52;16.98;;;13.80;96.10;;;;;;2080952;28;20026;-70
2021/10/03 01:27:40;;;;;;;24.50;18.15;;;13.80;96.10;;;;;;2080885;28;20033;-72
2021/10/03 01:28:40;;;;;;;24.42;17.40;;;13.80;96.20;;;;;;2080861;28;20441;-69
2021/10/03 01:29:42;;;;;;;22.15;17.08;;;13.80;96.20;;;;;;2080944;28;20026;-70
2021/10/03 01:30:47;;;;;;;25.75;17.05;;;13.70;96.30;;;;;;2081402;28;20014;-69
2021/10/03 01:31:48;;;;;;;23.17;17.30;;;13.70;96.30;;;;;;2080675;28;20025;-69
2021/10/03 01:32:48;;;;;;;27.98;17.52;;;13.70;96.20;;;;;;2079400;28;20075;-71
2021/10/03 01:33:49;;;;;;;22.85;17.48;;;13.70;96.10;;;;;;2081022;28;20601;-70
2021/10/03 01:34:50;;;;;;;20.77;16.10;;;13.70;96.10;;;;;;2081746;28;20029;-70
2021/10/03 01:35:50;;;;;;;23.70;16.95;;;13.70;96.30;;;;;;2089239;28;20115;-71
2021/10/03 01:36:51;;;;;;;24.55;16.98;;;13.70;96.20;;;;;;2089299;28;20090;-69
2021/10/03 01:37:52;;;;;;;21.13;17.27;;;13.70;96.30;;;;;;2081683;28;20036;-69
2021/10/03 01:38:53;;;;;;;25.17;17.58;;;13.60;96.30;;;;;;2081866;28;20029;-69
2021/10/03 01:39:54;;;;;;;24.45;17.42;;;13.60;96.30;;;;;;2081597;28;20456;-69
2021/10/03 01:40:55;;;;;;;26.48;16.63;;;13.60;96.40;;;;;;2081578;28;20096;-69
2021/10/03 01:41:56;;;;;;;23.00;17.05;;;13.60;96.60;;;;;;2080912;28;20033;-71
2021/10/03 01:42:58;;;;;;;23.25;17.55;;;13.60;96.70;;;;;;2081013;28;20087;-71
2021/10/03 01:44:00;;;;;;;23.38;16.95;;;13.60;96.50;;;;;;2080976;28;20056;-71
2021/10/03 01:45:00;;;;;;;28.08;17.38;;;13.60;96.50;;;;;;2080826;28;20021;-70
2021/10/03 01:46:02;;;;;;;21.45;17.65;;;13.60;96.70;;;;;;2080700;28;20140;-69
2021/10/03 01:47:02;;;;;;;19.13;16.17;;;13.60;96.60;;;;;;2081477;28;20036;-71
2021/10/03 01:48:06;;;;;;;24.05;18.05;;;13.50;96.60;;;;;;2081458;28;20033;-70
2021/10/03 01:49:07;;;;;;;22.23;16.95;;;13.50;96.80;;;;;;2081417;28;20099;-72
2021/10/03 01:50:08;;;;;;;25.65;17.33;;;13.50;97.00;;;;;;2081303;28;20795;-70
2021/10/03 01:51:10;;;;;;;22.75;17.38;;;13.40;97.10;;;;;;2080309;28;20083;-70
2021/10/03 01:52:11;;;;;;;25.00;17.65;;;13.40;97.10;;;;;;2080505;28;20057;-71
2021/10/03 01:53:17;;;;;;;25.42;17.40;;;13.40;97.20;;;;;;2081464;28;20041;-71
2021/10/03 01:54:18;;;;;;;23.40;17.27;;;13.40;97.20;;;;;;2081453;28;20553;-71
2021/10/03 01:55:18;;;;;;;23.92;17.48;;;13.40;97.30;;;;;;2089200;28;20029;-72
2021/10/03 01:56:20;;;;;;;24.65;18.35;;;13.40;97.40;;;;;;2088905;28;20440;-71
2021/10/03 01:57:21;;;;;;;24.73;18.17;;;13.40;97.30;;;;;;2081318;28;20410;-71
2021/10/03 01:58:24;;;;;;;26.60;18.55;;;13.40;97.20;;;;;;2081241;28;20040;-71
2021/10/03 01:59:24;;;;;;;22.42;17.83;;;13.40;97.30;;;;;;2081205;28;20057;-71
2021/10/03 02:00:25;;;;;;;24.27;18.00;;;13.40;97.40;;;;;;2081091;28;20056;-72
2021/10/03 02:01:27;;;;;;;28.95;18.77;;;13.40;97.50;;;;;;2080463;28;20549;-71
2021/10/03 02:02:28;;;;;;;22.95;18.50;;;13.40;97.60;;;;;;2080762;28;20159;-70
2021/10/03 02:03:29;;;;;;;23.05;17.92;;;13.40;97.50;;;;;;2080838;28;20115;-70
2021/10/03 02:04:29;;;;;;;27.88;18.38;;;13.40;97.60;;;;;;2080896;28;20038;-69
2021/10/03 02:05:36;;;;;;;23.83;17.73;;;13.40;97.50;;;;;;2081362;28;20032;-69
2021/10/03 02:06:44;;;;;;;25.30;18.33;;;13.30;97.60;;;;;;2081549;28;20029;-69
2021/10/03 02:07:44;;;;;;;25.05;18.45;;;13.30;97.60;;;;;;2081289;28;20162;-69
2021/10/03 02:08:53;;;;;;;25.95;18.70;;;13.30;97.60;;;;;;2080632;28;20563;-70
2021/10/03 02:09:53;;;;;;;26.25;18.55;;;13.30;97.70;;;;;;2080795;28;20025;-70
2021/10/03 02:10:54;;;;;;;27.77;18.90;;;13.30;97.80;;;;;;2081386;28;20033;-69
2021/10/03 02:11:59;;;;;;;22.92;17.40;;;13.30;97.80;;;;;;2080445;28;20080;-70
2021/10/03 02:13:00;;;;;;;21.83;17.83;;;13.30;97.80;;;;;;2080628;28;20096;-71
2021/10/03 02:14:00;;;;;;;25.38;18.00;;;13.30;97.80;;;;;;2080436;28;20439;-69
2021/10/03 02:15:01;;;;;;;26.40;18.95;;;13.30;97.90;;;;;;2080511;28;20029;-70
2021/10/03 02:16:02;;;;;;;28.65;19.42;;;13.20;98.20;;;;;;2080660;28;20409;-70
2021/10/03 02:17:06;;;;;;;23.33;18.77;;;13.20;98.10;;;;;;2080808;28;20115;-70
2021/10/03 02:18:08;;;;;;;27.33;19.10;;;13.20;98.10;;;;;;2081384;28;20750;-69
2021/10/03 02:19:09;;;;;;;29.05;19.67;;;13.20;98.10;;;;;;2081375;28;20032;-69
2021/10/03 02:20:10;;;;;;;24.98;18.70;;;13.20;98.20;;;;;;2080359;28;20094;-72
2021/10/03 02:21:12;;;;;;;27.50;19.60;;;13.20;98.20;;;;;;2080012;28;20080;-71
2021/10/03 02:22:14;;;;;;;26.20;18.98;;;13.20;98.30;;;;;;2081333;28;20025;-72
2021/10/03 02:23:15;;;;;;;26.02;19.55;;;13.20;98.40;;;;;;2088821;28;20033;-71
2021/10/03 02:24:16;;;;;;;24.55;19.65;;;13.20;98.50;;;;;;2088808;28;20029;-72
2021/10/03 02:25:17;;;;;;;26.95;19.80;;;13.20;98.50;;;;;;2080441;28;20017;-70
2021/10/03 02:26:18;;;;;;;25.10;18.95;;;13.20;98.60;;;;;;2080463;28;20490;-71
2021/10/03 02:27:18;;;;;;;25.05;19.02;;;13.20;98.60;;;;;;2080387;28;20021;-71
2021/10/03 02:28:21;;;;;;;27.92;19.33;;;13.20;98.70;;;;;;2080581;28;20092;-71
2021/10/03 02:29:22;;;;;;;27.05;19.10;;;13.20;98.70;;;;;;2081194;28;20494;-71
2021/10/03 02:30:23;;;;;;;25.27;20.08;;;13.20;98.60;;;;;;2080480;28;20060;-71
2021/10/03 02:31:23;;;;;;;25.77;19.27;;;13.20;98.70;;;;;;2079886;28;20103;-71
2021/10/03 02:32:24;;;;;;;26.55;19.75;;;13.20;98.70;;;;;;2081461;28;20095;-70
2021/10/03 02:33:25;;;;;;;25.00;19.00;;;13.10;98.80;;;;;;2081189;28;20060;-69
2021/10/03 02:34:26;;;;;;;25.38;19.50;;;13.10;98.80;;;;;;2080709;28;20032;-69
2021/10/03 02:35:27;;;;;;;27.17;19.67;;;13.20;98.80;;;;;;2080758;28;20034;-70
2021/10/03 02:36:28;;;;;;;29.30;20.13;;;13.10;98.70;;;;;;2081043;28;20065;-69
2021/10/03 02:37:28;;;;;;;27.33;20.02;;;13.20;98.90;;;;;;2081163;28;20032;-71
2021/10/03 02:38:29;;;;;;;26.48;19.50;;;13.10;98.90;;;;;;2081308;28;20029;-70
2021/10/03 02:39:30;;;;;;;28.48;19.52;;;13.20;98.90;;;;;;2081375;28;20120;-70
2021/10/03 02:40:30;;;;;;;25.70;19.35;;;13.20;98.70;;;;;;2081130;28;20068;-70
2021/10/03 02:41:31;;;;;;;24.20;19.00;;;13.20;98.60;;;;;;2080195;28;20096;-71
2021/10/03 02:42:32;;;;;;;27.50;20.27;;;13.20;98.60;;;;;;2081004;28;20031;-71
2021/10/03 02:43:35;;;;;;;26.85;19.90;;;13.20;98.80;;;;;;2080252;28;20034;-71
2021/10/03 02:44:35;;;;;;;29.23;19.23;;;13.20;98.90;;;;;;2080348;28;20033;-70
2021/10/03 02:45:39;;;;;;;28.75;19.73;;;13.10;99.00;;;;;;2080158;28;20026;-71
2021/10/03 02:46:40;;;;;;;28.17;20.25;;;13.10;99.20;;;;;;2080369;28;20029;-71
2021/10/03 02:47:40;;;;;;;25.05;19.42;;;13.10;99.20;;;;;;2080895;28;20029;-71
2021/10/03 02:48:48;;;;;;;24.15;19.65;;;13.10;99.20;;;;;;2081008;28;20021;-71
2021/10/03 02:49:48;;;;;;;27.95;20.17;;;13.10;99.40;;;;;;2080422;28;20085;-71
2021/10/03 02:50:50;;;;;;;27.88;20.88;;;13.00;99.60;;;;;;2080083;28;20029;-71
2021/10/03 02:51:51;;;;;;;29.02;20.60;;;13.10;99.50;;;;;;2079626;28;20014;-71
2021/10/03 02:52:51;;;;;;;26.90;19.75;;;13.10;99.40;;;;;;2080207;28;20032;-71
2021/10/03 02:53:53;;;;;;;27.63;19.70;;;13.10;99.40;;;;;;2080276;28;20030;-72
2021/10/03 02:54:53;;;;;;;25.15;19.98;;;13.10;99.40;;;;;;2081077;28;20067;-71
2021/10/03 02:55:54;;;;;;;26.65;19.98;;;13.10;99.40;;;;;;2080266;28;20041;-72
2021/10/03 02:56:55;;;;;;;25.85;19.75;;;13.10;99.40;;;;;;2080631;28;20489;-71
2021/10/03 02:57:56;;;;;;;25.45;19.88;;;13.10;99.40;;;;;;2081100;28;20112;-71
2021/10/03 02:58:57;;;;;;;31.63;20.08;;;13.10;99.20;;;;;;2080385;28;20450;-72
2021/10/03 02:59:57;;;;;;;24.45;19.48;;;13.10;99.20;;;;;;2080272;28;20021;-72
2021/10/03 03:00:58;;;;;;;25.25;19.63;;;13.10;99.30;;;;;;2080452;28;20049;-71
2021/10/03 03:01:59;;;;;;;26.65;20.10;;;13.10;99.20;;;;;;2079600;28;20698;-71
2021/10/03 03:03:00;;;;;;;26.40;20.30;;;13.10;99.20;;;;;;2080882;28;20117;-71
2021/10/03 03:04:00;;;;;;;27.20;19.50;;;13.10;99.20;;;;;;2080743;28;20029;-71
2021/10/03 03:05:01;;;;;;;28.73;19.75;;;13.10;99.30;;;;;;2080845;28;20496;-71
2021/10/03 03:06:04;;;;;;;26.48;19.98;;;13.10;99.20;;;;;;2080249;28;20048;-71
2021/10/03 03:07:05;;;;;;;27.65;19.70;;;13.10;99.20;;;;;;2080458;28;20041;-71
2021/10/03 03:08:06;;;;;;;28.80;19.63;;;13.10;99.30;;;;;;2088378;28;20207;-71
2021/10/03 03:09:06;;;;;;;27.83;19.70;;;13.10;99.20;;;;;;2080811;28;20025;-71
2021/10/03 03:10:09;;;;;;;28.08;20.13;;;13.10;99.20;;;;;;2080591;28;20041;-71
2021/10/03 03:11:10;;;;;;;27.52;20.00;;;13.10;99.30;;;;;;2080289;28;20118;-71
2021/10/03 03:12:10;;;;;;;26.73;19.38;;;13.10;99.40;;;;;;2080786;28;20052;-71
2021/10/03 03:13:11;;;;;;;28.52;19.67;;;13.10;99.50;;;;;;2081936;28;20033;-71
2021/10/03 03:14:12;;;;;;;26.17;20.52;;;13.10;99.60;;;;;;2081615;28;20033;-72
2021/10/03 03:15:12;;;;;;;26.70;19.75;;;13.10;99.60;;;;;;2081720;28;20026;-71
2021/10/03 03:16:13;;;;;;;31.52;20.40;;;13.10;99.70;;;;;;2082019;28;20037;-71
2021/10/03 03:17:18;;;;;;;29.75;20.55;;;13.10;99.60;;;;;;2081155;28;20033;-72
2021/10/03 03:18:19;;;;;;;25.45;20.15;;;13.10;99.60;;;;;;2080916;28;20692;-71
2021/10/03 03:19:20;;;;;;;27.80;19.50;;;13.10;99.60;;;;;;2080771;28;20026;-71
2021/10/03 03:20:21;;;;;;;27.80;19.65;;;13.10;99.50;;;;;;2080543;28;20083;-71
2021/10/03 03:21:22;;;;;;;27.10;19.67;;;13.10;99.60;;;;;;2079872;28;20084;-71
2021/10/03 03:22:22;;;;;;;27.75;19.45;;;13.10;99.50;;;;;;2080749;28;20026;-71
2021/10/03 03:23:23;;;;;;;26.38;20.13;;;13.10;99.40;;;;;;2080611;28;20061;-71
2021/10/03 03:24:24;;;;;;;26.13;19.95;;;13.10;99.50;;;;;;2079825;28;20033;-71
2021/10/03 03:25:24;;;;;;;28.05;19.92;;;13.10;99.50;;;;;;2080070;28;20057;-71
2021/10/03 03:26:25;;;;;;;25.60;20.27;;;13.10;99.50;;;;;;2079948;28;20116;-71
2021/10/03 03:27:26;;;;;;;24.85;19.50;;;13.10;99.50;;;;;;2080074;28;20060;-71
2021/10/03 03:28:26;;;;;;;27.67;20.02;;;13.10;99.60;;;;;;2080706;28;20034;-71
2021/10/03 03:29:27;;;;;;;29.27;20.17;;;13.10;99.60;;;;;;2080711;28;20030;-71
2021/10/03 03:30:28;;;;;;;25.92;19.60;;;13.10;99.70;;;;;;2080713;28;20521;-71
2021/10/03 03:31:28;;;;;;;27.75;20.70;;;13.10;99.70;;;;;;2080111;28;20029;-72
2021/10/03 03:32:29;;;;;;;26.70;20.08;;;13.00;99.80;;;;;;2080494;28;20029;-71
2021/10/03 03:33:30;;;;;;;27.80;20.15;;;13.00;99.80;;;;;;2080642;28;20049;-71
2021/10/03 03:34:31;;;;;;;27.95;19.77;;;13.00;99.90;;;;;;2080739;28;20065;-71
2021/10/03 03:35:32;;;;;;;27.98;20.17;;;13.00;99.90;;;;;;2080673;28;20034;-71
2021/10/03 03:36:33;;;;;;;24.83;19.45;;;13.00;99.90;;;;;;2080609;28;20029;-71
2021/10/03 03:37:33;;;;;;;26.13;19.83;;;13.00;99.90;;;;;;2080623;28;20655;-71
2021/10/03 03:38:36;;;;;;;26.05;20.20;;;13.10;99.90;;;;;;2080566;28;20022;-71
2021/10/03 03:39:37;;;;;;;28.10;20.52;;;13.10;99.90;;;;;;2080485;28;20053;-71
2021/10/03 03:40:38;;;;;;;24.85;19.73;;;13.10;99.80;;;;;;2080418;28;20797;-71
2021/10/03 03:41:38;;;;;;;29.40;19.48;;;13.10;99.80;;;;;;2079554;28;20079;-71
2021/10/03 03:42:40;;;;;;;26.02;19.70;;;13.10;99.80;;;;;;2080496;28;20470;-71
2021/10/03 03:43:41;;;;;;;24.83;19.92;;;13.10;99.70;;;;;;2080465;28;20014;-71
2021/10/03 03:44:42;;;;;;;27.55;20.20;;;13.10;99.60;;;;;;2080436;28;20507;-71
2021/10/03 03:45:42;;;;;;;27.08;20.23;;;13.10;99.70;;;;;;2080553;28;20049;-71
2021/10/03 03:46:43;;;;;;;27.48;19.88;;;13.10;99.70;;;;;;2080497;28;20022;-71
2021/10/03 03:47:44;;;;;;;28.30;20.55;;;13.10;99.60;;;;;;2080442;28;20028;-71
2021/10/03 03:48:44;;;;;;;25.80;19.70;;;13.10;99.60;;;;;;2080465;28;20053;-71
2021/10/03 03:49:50;;;;;;;26.15;19.88;;;13.10;99.80;;;;;;2080454;28;20132;-71
2021/10/03 03:50:51;;;;;;;28.65;20.52;;;13.10;99.80;;;;;;2080416;28;20025;-71
2021/10/03 03:51:52;;;;;;;30.00;20.42;;;13.20;99.70;;;;;;2079648;28;20025;-71
2021/10/03 03:52:53;;;;;;;29.70;20.45;;;13.10;99.60;;;;;;2080499;28;20548;-71
2021/10/03 03:53:53;;;;;;;28.70;20.05;;;13.20;99.50;;;;;;2080547;28;20377;-71
2021/10/03 03:54:54;;;;;;;26.95;20.17;;;13.10;99.60;;;;;;2080522;28;20611;-71
2021/10/03 03:55:54;;;;;;;28.77;20.17;;;13.20;99.50;;;;;;2079724;28;20075;-70
2021/10/03 03:56:55;;;;;;;25.67;19.52;;;13.20;99.60;;;;;;2080651;28;20101;-70
2021/10/03 03:57:55;;;;;;;25.00;19.92;;;13.20;99.60;;;;;;2080609;28;20039;-70
2021/10/03 03:58:56;;;;;;;26.50;20.20;;;13.20;99.70;;;;;;2080795;28;20120;-71
2021/10/03 03:59:57;;;;;;;29.05;20.13;;;13.10;99.70;;;;;;2080432;28;20068;-71
2021/10/03 04:00:57;;;;;;;26.90;20.80;;;13.10;99.90;;;;;;2079942;28;20040;-71
2021/10/03 04:01:58;;;;;;;26.60;20.05;;;13.10;99.80;;;;;;2079350;28;20339;-71
2021/10/03 04:02:58;;;;;;;26.90;20.40;;;13.10;99.90;;;;;;2080589;28;20485;-70
2021/10/03 04:03:59;;;;;;;26.38;20.23;;;13.10;99.80;;;;;;2071451;28;20044;-70
2021/10/03 04:05:00;;;;;;;26.35;20.08;;;13.10;99.90;;;;;;2063683;28;20025;-71
2021/10/03 04:06:00;;;;;;;26.30;19.42;;;13.10;99.90;;;;;;2080017;28;20745;-71
2021/10/03 04:07:03;;;;;;;29.20;20.08;;;13.10;99.70;;;;;;2080495;28;20021;-71
2021/10/03 04:08:07;;;;;;;27.00;20.00;;;13.10;99.90;;;;;;2080726;28;20033;-71
2021/10/03 04:09:07;;;;;;;26.80;20.20;;;13.10;99.90;;;;;;2080735;28;20029;-71
2021/10/03 04:10:08;;;;;;;26.52;19.80;;;13.10;99.90;;;;;;2088235;28;20040;-71
2021/10/03 04:11:11;;;;;;;26.67;19.83;;;13.10;99.90;;;;;;2087852;28;20516;-72
2021/10/03 04:12:12;;;;;;;31.73;21.02;;;13.10;99.80;;;;;;2080630;28;20141;-72
2021/10/03 04:13:12;;;;;;;27.63;20.40;;;13.20;99.80;;;;;;2080617;28;20052;-71
2021/10/03 04:14:14;;;;;;;28.90;19.92;;;13.10;99.70;;;;;;2080623;28;20458;-71
2021/10/03 04:15:14;;;;;;;28.55;19.88;;;13.10;99.70;;;;;;2080259;28;20052;-72
2021/10/03 04:16:15;;;;;;;27.10;20.33;;;13.20;99.80;;;;;;2080062;28;20069;-72
2021/10/03 04:17:16;;;;;;;26.77;20.23;;;13.10;99.80;;;;;;2080057;28;20133;-71
2021/10/03 04:18:16;;;;;;;26.08;20.08;;;13.10;99.80;;;;;;2080113;28;20025;-71
2021/10/03 04:19:17;;;;;;;26.00;19.98;;;13.10;99.90;;;;;;2080091;28;20541;-71
2021/10/03 04:20:18;;;;;;;31.33;20.23;;;13.10;99.90;;;;;;2079864;28;20036;-71
2021/10/03 04:21:18;;;;;;;27.00;20.52;;;13.10;99.90;;;;;;2079260;28;20537;-71
2021/10/03 04:22:19;;;;;;;27.30;19.55;;;13.10;99.90;;;;;;2080539;28;20033;-72
2021/10/03 04:23:19;;;;;;;28.40;19.30;;;13.10;99.90;;;;;;2080249;28;20029;-71
2021/10/03 04:24:20;;;;;;;27.48;20.75;;;13.10;99.90;;;;;;2080478;28;20438;-71
2021/10/03 04:25:21;;;;;;;26.27;20.00;;;13.00;99.90;;;;;;2080600;28;20174;-72
2021/10/03 04:26:21;;;;;;;27.98;20.25;;;13.10;99.90;;;;;;2079964;28;20037;-71
2021/10/03 04:27:22;;;;;;;28.52;20.00;;;13.10;99.90;;;;;;2079959;28;20120;-71
2021/10/03 04:28:25;;;;;;;26.55;19.88;;;13.10;99.90;;;;;;2080025;28;20109;-71
2021/10/03 04:29:26;;;;;;;27.05;20.27;;;13.10;99.90;;;;;;2080007;28;20426;-71
2021/10/03 04:30:27;;;;;;;23.67;19.42;;;13.10;99.90;;;;;;2080453;28;20049;-71
2021/10/03 04:31:28;;;;;;;28.52;19.17;;;13.10;99.90;;;;;;2079039;28;20586;-71
2021/10/03 04:32:28;;;;;;;28.85;20.05;;;13.10;99.90;;;;;;2079829;28;20041;-71
2021/10/03 04:33:29;;;;;;;26.92;19.98;;;13.10;99.90;;;;;;2080292;28;20041;-71
2021/10/03 04:34:29;;;;;;;29.90;19.85;;;13.10;99.90;;;;;;2080349;28;20077;-71
2021/10/03 04:35:30;;;;;;;27.13;20.08;;;13.10;99.90;;;;;;2080598;28;20037;-71
2021/10/03 04:36:31;;;;;;;29.52;20.30;;;13.00;99.90;;;;;;2080466;28;20033;-71
2021/10/03 04:37:31;;;;;;;31.13;19.83;;;13.00;99.90;;;;;;2080396;28;20025;-71
2021/10/03 04:38:32;;;;;;;30.73;20.35;;;13.00;99.90;;;;;;2087971;28;20120;-71
2021/10/03 04:39:33;;;;;;;30.20;20.88;;;13.00;99.90;;;;;;2087962;28;20044;-71
2021/10/03 04:40:34;;;;;;;28.08;20.27;;;13.00;99.90;;;;;;2087870;28;20083;-71
2021/10/03 04:41:34;;;;;;;27.55;20.05;;;13.00;99.90;;;;;;2087123;28;20447;-71
2021/10/03 04:42:35;;;;;;;25.60;19.85;;;13.00;99.90;;;;;;2080470;28;20037;-71
2021/10/03 04:43:35;;;;;;;29.02;19.75;;;13.00;99.90;;;;;;2080280;28;20080;-71
2021/10/03 04:44:36;;;;;;;24.63;19.67;;;13.00;99.90;;;;;;2080406;28;20490;-71
2021/10/03 04:45:37;;;;;;;30.45;20.58;;;13.00;99.90;;;;;;2080383;28;20091;-71
2021/10/03 04:46:37;;;;;;;26.85;19.33;;;13.00;99.90;;;;;;2080298;28;20060;-71
2021/10/03 04:47:38;;;;;;;26.67;20.00;;;13.00;99.90;;;;;;2080303;28;20038;-71
2021/10/03 04:48:39;;;;;;;27.10;19.60;;;13.00;99.90;;;;;;2080292;28;20069;-71
2021/10/03 04:49:39;;;;;;;33.60;20.75;;;13.00;99.90;;;;;;2080343;28;20021;-71
2021/10/03 04:50:40;;;;;;;26.02;19.52;;;13.00;99.90;;;;;;2080391;28;20429;-71
2021/10/03 04:51:41;;;;;;;28.55;19.55;;;13.00;99.90;;;;;;2079523;28;20025;-71
2021/10/03 04:52:43;;;;;;;31.00;20.00;;;13.00;99.90;;;;;;2080418;28;20105;-71
2021/10/03 04:53:43;;;;;;;26.10;19.63;;;13.00;99.90;;;;;;2079656;28;20040;-71
2021/10/03 04:54:45;;;;;;;25.75;19.63;;;13.10;99.90;;;;;;2071508;28;20022;-71
2021/10/03 04:55:46;;;;;;;28.35;19.13;;;13.10;99.90;;;;;;2071583;28;20026;-71
2021/10/03 04:56:46;;;;;;;25.52;19.92;;;13.00;99.90;;;;;;2079703;28;20401;-71
2021/10/03 04:57:48;;;;;;;25.08;19.55;;;13.00;99.90;;;;;;2080505;28;20458;-71
2021/10/03 04:58:48;;;;;;;27.60;20.00;;;13.00;99.90;;;;;;2080386;28;20494;-71
2021/10/03 04:59:49;;;;;;;25.35;19.67;;;13.00;99.90;;;;;;2088066;28;20041;-71
2021/10/03 05:00:51;;;;;;;25.90;19.42;;;13.00;99.90;;;;;;2088079;28;20197;-71
2021/10/03 05:01:52;;;;;;;29.23;19.65;;;13.00;99.90;;;;;;2079430;28;20497;-71
2021/10/03 05:02:53;;;;;;;25.40;19.45;;;13.00;99.90;;;;;;2080229;28;20112;-72
2021/10/03 05:03:54;;;;;;;27.13;19.70;;;13.00;99.90;;;;;;2080321;28;20030;-71
2021/10/03 05:04:55;;;;;;;27.08;19.65;;;12.90;99.90;;;;;;2080238;28;20022;-71
2021/10/03 05:05:55;;;;;;;24.88;19.50;;;12.90;99.90;;;;;;2087887;28;20033;-71
2021/10/03 05:06:56;;;;;;;26.42;19.98;;;12.90;99.90;;;;;;2088307;28;20021;-72
2021/10/03 05:07:56;;;;;;;27.77;20.38;;;12.90;99.90;;;;;;2081979;28;20063;-71
2021/10/03 05:08:57;;;;;;;26.40;19.58;;;12.90;99.90;;;;;;2073676;28;20029;-71
2021/10/03 05:09:57;;;;;;;25.58;18.70;;;12.90;99.90;;;;;;2073562;28;20042;-71
2021/10/03 05:10:58;;;;;;;24.58;19.63;;;12.90;99.90;;;;;;2082435;28;20017;-71